Time;durP1;ratioP1;P1;durP2;ratioP2;P2;SDS_P1;SDS_P2;PMS_P1;PMS_P2;Temp;Humidity;BMP_temperature;BMP_pressure;BME280_temperature;BME280_humidity;BME280_pressure;Samples;Min_cycle;Max_cycle;Signal;HPM_P1;HPM_P2
2020/12/11 00:02:24;;;;;;;11.13;4.13;;;1.90;99.90;;;;;;4989227;28;20117;-75
2020/12/11 00:04:50;;;;;;;9.13;3.88;;;1.90;99.90;;;;;;4986615;28;20045;-75
2020/12/11 00:07:15;;;;;;;8.10;4.00;;;1.90;99.90;;;;;;4991037;28;20038;-75
2020/12/11 00:09:41;;;;;;;11.55;5.13;;;1.90;99.90;;;;;;4981044;28;20457;-75
2020/12/11 00:12:07;;;;;;;9.68;4.57;;;1.90;99.90;;;;;;5000697;28;20128;-75
2020/12/11 00:14:33;;;;;;;8.63;4.38;;;1.90;99.90;;;;;;5009723;28;20045;-75
2020/12/11 00:16:58;;;;;;;11.43;4.47;;;1.90;99.90;;;;;;5004687;28;20026;-75
2020/12/11 00:19:24;;;;;;;10.25;3.88;;;1.90;99.90;;;;;;4970484;28;20030;-75
2020/12/11 00:21:50;;;;;;;11.13;4.18;;;2.00;99.90;;;;;;5009375;28;20030;-75
2020/12/11 00:24:16;;;;;;;8.63;4.10;;;2.00;99.90;;;;;;4969667;28;20117;-75
2020/12/11 00:26:42;;;;;;;10.48;5.68;;;1.90;99.90;;;;;;5008743;28;20411;-75
2020/12/11 00:29:08;;;;;;;8.90;4.07;;;1.90;99.90;;;;;;4994129;28;20030;-75
2020/12/11 00:31:33;;;;;;;7.78;3.88;;;1.90;99.90;;;;;;5010781;28;20115;-75
2020/12/11 00:33:59;;;;;;;11.05;4.63;;;1.90;99.90;;;;;;5009777;28;20038;-75
2020/12/11 00:36:25;;;;;;;11.05;4.00;;;1.90;99.90;;;;;;5007073;28;20030;-75
2020/12/11 00:38:52;;;;;;;9.35;4.70;;;1.90;99.90;;;;;;4982761;28;20044;-75
2020/12/11 00:41:18;;;;;;;11.50;4.60;;;2.00;99.90;;;;;;4972845;28;600893;-75
2020/12/11 00:43:44;;;;;;;11.13;4.53;;;1.90;99.90;;;;;;5008946;28;20065;-76
2020/12/11 00:46:11;;;;;;;9.73;4.22;;;1.90;99.90;;;;;;5005055;28;20551;-76
2020/12/11 00:48:37;;;;;;;11.02;4.43;;;2.00;99.90;;;;;;4994568;28;20045;-75
2020/12/11 00:51:03;;;;;;;9.77;4.85;;;1.90;99.90;;;;;;4977468;28;20026;-75
2020/12/11 00:53:29;;;;;;;12.35;4.35;;;1.90;99.90;;;;;;5010279;28;20217;-75
2020/12/11 00:55:56;;;;;;;12.63;5.00;;;1.90;99.90;;;;;;4960801;28;20129;-76
2020/12/11 00:58:22;;;;;;;11.10;4.70;;;2.00;99.90;;;;;;5007000;28;20184;-75
2020/12/11 01:00:48;;;;;;;15.60;5.15;;;1.90;99.90;;;;;;5011318;28;20026;-75
2020/12/11 01:03:13;;;;;;;12.05;5.25;;;1.90;99.90;;;;;;4994020;28;20071;-75
2020/12/11 01:05:39;;;;;;;14.70;4.95;;;1.90;99.90;;;;;;4991600;28;20115;-76
2020/12/11 01:08:06;;;;;;;13.73;5.15;;;1.90;99.90;;;;;;5001037;28;20045;-76
2020/12/11 01:10:32;;;;;;;13.27;5.00;;;1.90;99.90;;;;;;5011170;28;20034;-75
2020/12/11 01:12:58;;;;;;;11.27;4.60;;;1.90;99.90;;;;;;5009004;28;20113;-75
2020/12/11 01:15:24;;;;;;;14.02;5.10;;;1.90;99.90;;;;;;4998158;28;20058;-75
2020/12/11 01:17:50;;;;;;;13.35;5.32;;;1.90;99.90;;;;;;4985447;28;20030;-75
2020/12/11 01:20:16;;;;;;;12.60;4.32;;;1.90;99.90;;;;;;5011756;28;20373;-75
2020/12/11 01:22:42;;;;;;;13.40;4.90;;;1.90;99.90;;;;;;4993435;28;20037;-75
2020/12/11 01:25:08;;;;;;;17.55;5.60;;;1.90;99.90;;;;;;5009340;28;20026;-75
2020/12/11 01:27:34;;;;;;;15.15;5.82;;;1.90;99.90;;;;;;5002115;28;20038;-76
2020/12/11 01:29:59;;;;;;;11.20;4.72;;;1.90;99.90;;;;;;5009204;28;20420;-75
2020/12/11 01:32:25;;;;;;;12.15;4.47;;;1.90;99.90;;;;;;5009574;28;20037;-75
2020/12/11 01:34:51;;;;;;;10.82;5.00;;;1.90;99.90;;;;;;5003925;28;20523;-75
2020/12/11 01:37:16;;;;;;;10.60;4.38;;;1.90;99.90;;;;;;5007262;28;20079;-75
2020/12/11 01:39:42;;;;;;;11.32;5.28;;;1.90;99.90;;;;;;5011664;28;20029;-75
2020/12/11 01:42:11;;;;;;;15.68;5.40;;;1.90;99.90;;;;;;5010609;28;20026;-75
2020/12/11 01:44:37;;;;;;;12.45;5.38;;;1.90;99.90;;;;;;5002260;28;20058;-75
2020/12/11 01:47:03;;;;;;;14.60;4.90;;;1.90;99.90;;;;;;5011382;28;20037;-75
2020/12/11 01:49:29;;;;;;;12.32;5.18;;;1.90;99.90;;;;;;4977823;28;20034;-75
2020/12/11 01:51:55;;;;;;;13.60;5.32;;;1.90;99.90;;;;;;4993331;28;20041;-75
2020/12/11 01:54:21;;;;;;;11.32;4.70;;;1.90;99.90;;;;;;5009855;28;20037;-75
2020/12/11 01:57:00;;;;;;;10.93;4.80;;;1.90;99.90;;;;;;4991106;28;20658;-75
2020/12/11 01:59:32;;;;;;;16.15;5.88;;;1.90;99.90;;;;;;4998020;28;20034;-75
2020/12/11 02:01:58;;;;;;;13.73;5.30;;;2.00;99.90;;;;;;4986710;28;20026;-75
2020/12/11 02:04:25;;;;;;;10.63;4.43;;;2.00;99.90;;;;;;5002875;28;20561;-75
2020/12/11 02:06:51;;;;;;;13.85;5.60;;;2.00;99.90;;;;;;4993488;28;20030;-75
2020/12/11 02:09:22;;;;;;;10.50;5.30;;;2.00;99.90;;;;;;4992573;28;20048;-75
2020/12/11 02:11:52;;;;;;;12.75;5.07;;;2.00;99.90;;;;;;4992820;28;20408;-76
2020/12/11 02:14:18;;;;;;;14.27;5.07;;;2.00;99.90;;;;;;5009656;28;20041;-75
2020/12/11 02:16:44;;;;;;;12.15;4.68;;;1.90;99.90;;;;;;5009142;28;20038;-75
2020/12/11 02:19:12;;;;;;;12.07;5.60;;;1.90;99.90;;;;;;5009433;28;20034;-75
2020/12/11 02:21:38;;;;;;;15.23;4.55;;;1.90;99.90;;;;;;5010767;28;20404;-75
2020/12/11 02:24:03;;;;;;;13.98;4.75;;;1.90;99.90;;;;;;5007945;28;20028;-75
2020/12/11 02:26:29;;;;;;;14.77;5.43;;;1.90;99.90;;;;;;5010424;28;20492;-75
2020/12/11 02:28:55;;;;;;;14.02;5.38;;;1.90;99.90;;;;;;5014524;28;20385;-75
2020/12/11 02:31:20;;;;;;;13.15;5.50;;;2.00;99.90;;;;;;4996432;28;20543;-75
2020/12/11 02:33:46;;;;;;;11.13;4.68;;;2.00;99.90;;;;;;4995006;28;20544;-76
2020/12/11 02:36:12;;;;;;;13.60;4.93;;;1.90;99.90;;;;;;5012395;28;20492;-76
2020/12/11 02:38:38;;;;;;;12.77;5.32;;;1.90;99.90;;;;;;5014332;28;20033;-76
2020/12/11 02:41:04;;;;;;;11.63;5.15;;;2.00;99.90;;;;;;4996094;28;20121;-75
2020/12/11 02:43:36;;;;;;;16.17;5.28;;;1.90;99.90;;;;;;4996926;28;20033;-76
2020/12/11 02:46:04;;;;;;;11.40;5.15;;;1.90;99.90;;;;;;4994098;28;20062;-75
2020/12/11 02:48:30;;;;;;;12.93;4.57;;;2.00;99.90;;;;;;5013655;28;20081;-75
2020/12/11 02:50:57;;;;;;;12.50;5.38;;;1.90;99.90;;;;;;5013723;28;20527;-75
2020/12/11 02:53:23;;;;;;;12.30;4.40;;;1.90;99.90;;;;;;4994718;28;20026;-75
2020/12/11 02:55:48;;;;;;;9.52;5.07;;;1.90;99.90;;;;;;4988856;28;20037;-75
2020/12/11 02:58:15;;;;;;;12.40;5.15;;;2.00;99.90;;;;;;5014140;28;20026;-75
2020/12/11 03:00:40;;;;;;;13.77;5.53;;;2.10;99.90;;;;;;5013643;28;20040;-75
2020/12/11 03:03:06;;;;;;;15.45;5.63;;;2.10;99.90;;;;;;5011671;28;20014;-75
2020/12/11 03:05:33;;;;;;;17.67;5.88;;;2.20;99.90;;;;;;4995482;28;20038;-75
2020/12/11 03:07:58;;;;;;;19.67;6.13;;;2.20;99.90;;;;;;5013778;28;20038;-75
2020/12/11 03:10:24;;;;;;;15.43;5.65;;;2.10;99.90;;;;;;5014032;28;20076;-75
2020/12/11 03:12:50;;;;;;;19.20;5.93;;;2.10;99.90;;;;;;4979389;28;20462;-75
2020/12/11 03:15:15;;;;;;;19.23;6.05;;;2.10;99.90;;;;;;5011049;28;20026;-75
2020/12/11 03:17:41;;;;;;;12.60;5.93;;;2.10;99.90;;;;;;4985930;28;20088;-75
2020/12/11 03:20:07;;;;;;;14.23;5.90;;;2.00;99.90;;;;;;5011587;28;20470;-75
2020/12/11 03:22:33;;;;;;;18.42;6.32;;;1.90;99.90;;;;;;4994080;28;20034;-74
2020/12/11 03:24:58;;;;;;;18.08;5.90;;;1.90;99.90;;;;;;5005796;28;20033;-74
2020/12/11 03:27:24;;;;;;;14.27;6.10;;;1.80;99.90;;;;;;5013580;28;20480;-75
2020/12/11 03:29:50;;;;;;;17.23;6.40;;;1.80;99.90;;;;;;5013697;28;20041;-76
2020/12/11 03:32:15;;;;;;;12.75;5.45;;;1.80;99.90;;;;;;5012974;28;20037;-77
2020/12/11 03:34:41;;;;;;;16.40;6.32;;;1.70;99.90;;;;;;5010022;28;20038;-77
2020/12/11 03:37:07;;;;;;;13.98;5.20;;;1.70;99.90;;;;;;5009917;28;20417;-77
2020/12/11 03:39:32;;;;;;;19.35;6.18;;;1.70;99.90;;;;;;5012014;28;20034;-77
2020/12/11 03:41:58;;;;;;;18.48;6.15;;;1.70;99.90;;;;;;4995227;28;20081;-76
2020/12/11 03:44:24;;;;;;;15.10;5.28;;;1.60;99.90;;;;;;5004958;28;20038;-77
2020/12/11 03:46:49;;;;;;;13.98;5.78;;;1.60;99.90;;;;;;4995236;28;20044;-77
2020/12/11 03:49:15;;;;;;;13.98;6.00;;;1.50;99.90;;;;;;4995903;28;20400;-77
2020/12/11 03:51:41;;;;;;;14.15;6.03;;;1.60;99.90;;;;;;4995440;28;20030;-76
2020/12/11 03:54:07;;;;;;;12.32;5.43;;;1.60;99.90;;;;;;5011602;28;20029;-76
2020/12/11 03:56:32;;;;;;;14.88;6.15;;;1.60;99.90;;;;;;4972436;28;20373;-77
2020/12/11 03:58:58;;;;;;;14.80;5.45;;;1.50;99.90;;;;;;5012434;28;20558;-77
2020/12/11 04:01:24;;;;;;;12.95;5.38;;;1.60;99.90;;;;;;4991555;28;20038;-76
2020/12/11 04:03:49;;;;;;;14.75;5.47;;;1.60;99.90;;;;;;5008078;28;20032;-76
2020/12/11 04:06:17;;;;;;;14.95;5.65;;;1.50;99.90;;;;;;5006729;28;20046;-76
2020/12/11 04:08:44;;;;;;;15.27;5.68;;;1.60;99.90;;;;;;5012329;28;20062;-76
2020/12/11 04:11:14;;;;;;;13.88;5.88;;;1.60;99.90;;;;;;5012237;28;20492;-76
2020/12/11 04:13:41;;;;;;;13.77;5.22;;;1.60;99.90;;;;;;5010043;28;20026;-76
2020/12/11 04:16:08;;;;;;;12.88;5.72;;;1.60;99.90;;;;;;4994700;28;20037;-76
2020/12/11 04:18:34;;;;;;;12.30;5.50;;;1.50;99.90;;;;;;4995091;28;20420;-76
2020/12/11 04:21:00;;;;;;;14.90;5.88;;;1.50;99.90;;;;;;4994459;28;20033;-77
2020/12/11 04:23:27;;;;;;;15.05;4.95;;;1.50;99.90;;;;;;4995428;28;20037;-76
2020/12/11 04:25:53;;;;;;;16.25;6.10;;;1.50;99.90;;;;;;4972781;28;20030;-76
2020/12/11 04:28:19;;;;;;;12.55;5.60;;;1.60;99.90;;;;;;5000966;28;20042;-76
2020/12/11 04:30:45;;;;;;;13.60;5.57;;;1.60;99.90;;;;;;5011872;28;20030;-76
2020/12/11 04:33:11;;;;;;;15.45;6.50;;;1.60;99.90;;;;;;5010370;28;20404;-76
2020/12/11 04:35:37;;;;;;;14.57;6.15;;;1.60;99.90;;;;;;4994097;28;20074;-76
2020/12/11 04:38:03;;;;;;;16.33;6.22;;;1.60;99.90;;;;;;5012116;28;20092;-76
2020/12/11 04:40:29;;;;;;;16.05;6.72;;;1.60;99.90;;;;;;5012120;28;20473;-76
2020/12/11 04:42:55;;;;;;;16.75;6.90;;;1.60;99.90;;;;;;5011838;28;20120;-76
2020/12/11 04:45:22;;;;;;;13.85;6.47;;;1.60;99.90;;;;;;5008615;28;20185;-76
2020/12/11 04:47:49;;;;;;;15.20;6.65;;;1.60;99.90;;;;;;5000667;28;20034;-76
2020/12/11 04:50:17;;;;;;;12.90;6.50;;;1.60;99.90;;;;;;5010817;28;20113;-76
2020/12/11 04:52:44;;;;;;;14.13;6.22;;;1.60;99.90;;;;;;4992013;28;20035;-76
2020/12/11 04:55:15;;;;;;;14.65;6.20;;;1.60;99.90;;;;;;5004821;28;20060;-76
2020/12/11 04:57:49;;;;;;;18.67;6.63;;;1.70;99.90;;;;;;5011803;28;20026;-76
2020/12/11 05:00:16;;;;;;;15.65;6.82;;;1.70;99.90;;;;;;4994403;28;20122;-76
2020/12/11 05:02:45;;;;;;;14.75;5.53;;;1.60;99.90;;;;;;5009283;28;20084;-76
2020/12/11 05:05:12;;;;;;;16.30;7.00;;;1.60;99.90;;;;;;5009782;28;20034;-76
2020/12/11 05:07:38;;;;;;;19.23;6.75;;;1.70;99.90;;;;;;5009716;28;20037;-76
2020/12/11 05:10:06;;;;;;;19.27;6.63;;;1.70;99.90;;;;;;5001999;28;20034;-76
2020/12/11 05:12:32;;;;;;;16.10;6.65;;;1.70;99.90;;;;;;5009960;28;20070;-76
2020/12/11 05:15:09;;;;;;;12.65;6.40;;;1.70;99.90;;;;;;5009131;28;20031;-77
2020/12/11 05:17:39;;;;;;;15.07;6.47;;;1.70;99.90;;;;;;5010257;28;20033;-77
2020/12/11 05:20:07;;;;;;;12.63;5.53;;;1.70;99.90;;;;;;5011280;28;20410;-76
2020/12/11 05:22:35;;;;;;;12.63;5.68;;;1.70;99.90;;;;;;5009664;28;20034;-76
2020/12/11 05:25:03;;;;;;;14.40;6.68;;;1.70;99.90;;;;;;5001246;28;20023;-76
2020/12/11 05:27:32;;;;;;;14.13;6.32;;;1.60;99.90;;;;;;4999493;28;20038;-76
2020/12/11 05:30:00;;;;;;;15.02;6.90;;;1.60;99.90;;;;;;5011763;28;20041;-76
2020/12/11 05:32:47;;;;;;;12.40;6.70;;;1.60;99.90;;;;;;4993146;28;20030;-76
2020/12/11 05:35:18;;;;;;;12.88;6.38;;;1.50;99.90;;;;;;5009250;28;20022;-75
2020/12/11 05:37:48;;;;;;;12.02;6.28;;;1.40;99.90;;;;;;5010365;28;20026;-76
2020/12/11 05:40:19;;;;;;;13.38;6.05;;;1.40;99.90;;;;;;4994237;28;20480;-76
2020/12/11 05:43:16;;;;;;;12.48;6.40;;;1.40;99.90;;;;;;5009688;28;20065;-76
2020/12/11 05:45:58;;;;;;;11.75;6.43;;;1.30;99.90;;;;;;5010141;28;20531;-76
2020/12/11 05:48:36;;;;;;;12.68;6.70;;;1.40;99.90;;;;;;5011542;28;20040;-76
2020/12/11 05:51:17;;;;;;;11.68;5.75;;;1.40;99.90;;;;;;5010762;28;20096;-76
2020/12/11 05:53:43;;;;;;;15.43;7.28;;;1.40;99.90;;;;;;5008929;28;20121;-76
2020/12/11 05:56:09;;;;;;;14.35;6.93;;;1.30;99.90;;;;;;5004823;28;20084;-77
2020/12/11 05:58:35;;;;;;;15.55;7.50;;;1.30;99.90;;;;;;5013685;28;20025;-76
2020/12/11 06:01:02;;;;;;;12.70;7.20;;;1.30;99.90;;;;;;5014789;28;20121;-76
2020/12/11 06:03:28;;;;;;;14.90;6.85;;;1.30;99.90;;;;;;5013420;28;20037;-76
2020/12/11 06:05:58;;;;;;;14.63;7.35;;;1.30;99.90;;;;;;4994765;28;20399;-76
2020/12/11 06:08:27;;;;;;;17.05;7.63;;;1.20;99.90;;;;;;5011880;28;20065;-76
2020/12/11 06:10:54;;;;;;;18.73;8.63;;;1.20;99.90;;;;;;5014589;28;20476;-76
2020/12/11 06:13:36;;;;;;;18.25;8.13;;;1.20;99.90;;;;;;5015281;28;20030;-76
2020/12/11 06:16:04;;;;;;;16.77;6.90;;;1.30;99.90;;;;;;4992861;28;20022;-76
2020/12/11 06:18:34;;;;;;;19.17;8.02;;;1.30;99.90;;;;;;5015011;28;20030;-76
2020/12/11 06:21:01;;;;;;;14.43;7.35;;;1.30;99.90;;;;;;4997020;28;20084;-76
2020/12/11 06:23:29;;;;;;;18.17;8.38;;;1.30;99.90;;;;;;5013125;28;20034;-76
2020/12/11 06:25:56;;;;;;;18.23;7.60;;;1.30;99.90;;;;;;5013811;28;20137;-76
2020/12/11 06:28:40;;;;;;;15.73;7.05;;;1.30;99.90;;;;;;5014812;28;20036;-76
2020/12/11 06:31:14;;;;;;;12.82;6.50;;;1.30;99.90;;;;;;5014320;28;20041;-77
2020/12/11 06:33:45;;;;;;;15.38;6.97;;;1.20;99.90;;;;;;4997101;28;20034;-76
2020/12/11 06:36:12;;;;;;;15.13;7.35;;;1.30;99.90;;;;;;5012002;28;20045;-76
2020/12/11 06:38:39;;;;;;;13.75;6.50;;;1.30;99.90;;;;;;5013657;28;20026;-76
2020/12/11 06:41:05;;;;;;;13.02;5.93;;;1.20;99.90;;;;;;4996369;28;20030;-76
2020/12/11 06:43:44;;;;;;;15.93;6.32;;;1.20;99.90;;;;;;4979204;28;20038;-76
2020/12/11 06:46:12;;;;;;;17.38;6.72;;;1.20;99.90;;;;;;5008557;28;20042;-76
2020/12/11 06:49:06;;;;;;;16.42;6.72;;;1.10;99.90;;;;;;5014211;28;20033;-76
2020/12/11 06:51:56;;;;;;;12.10;6.60;;;1.20;99.90;;;;;;5013358;28;20049;-76
2020/12/11 06:54:21;;;;;;;16.35;8.02;;;1.10;99.90;;;;;;5012604;28;20061;-76
2020/12/11 06:56:54;;;;;;;14.85;6.40;;;1.10;99.90;;;;;;5009138;28;20033;-76
2020/12/11 06:59:24;;;;;;;17.00;6.72;;;1.10;99.90;;;;;;5005355;28;20489;-76
2020/12/11 07:01:50;;;;;;;17.90;6.80;;;1.10;99.90;;;;;;5013951;28;20034;-77
2020/12/11 07:04:16;;;;;;;11.57;5.20;;;1.10;99.90;;;;;;5006765;28;20027;-77
2020/12/11 07:06:50;;;;;;;14.95;6.57;;;1.10;99.90;;;;;;5012622;28;20022;-76
2020/12/11 07:09:16;;;;;;;16.25;6.65;;;1.10;99.90;;;;;;5013836;28;20125;-76
2020/12/11 07:11:43;;;;;;;16.55;6.35;;;1.10;99.90;;;;;;5013330;28;20022;-75
2020/12/11 07:14:09;;;;;;;15.25;7.13;;;1.10;99.90;;;;;;5012726;28;20034;-76
2020/12/11 07:16:39;;;;;;;13.90;6.40;;;1.10;99.90;;;;;;5010223;28;20018;-76
2020/12/11 07:19:05;;;;;;;14.05;6.20;;;1.10;99.90;;;;;;5003637;28;20030;-76
2020/12/11 07:21:33;;;;;;;16.13;6.70;;;1.10;99.90;;;;;;5013373;28;20037;-76
2020/12/11 07:24:03;;;;;;;18.85;7.57;;;0.90;99.90;;;;;;5008478;28;20037;-76
2020/12/11 07:26:28;;;;;;;18.50;7.28;;;0.90;99.90;;;;;;5008480;28;20030;-76
2020/12/11 07:29:04;;;;;;;15.27;7.25;;;0.90;99.90;;;;;;5013103;28;20473;-76
2020/12/11 07:31:35;;;;;;;17.30;6.72;;;0.90;99.90;;;;;;5011354;28;20061;-76
2020/12/11 07:34:02;;;;;;;17.08;6.57;;;0.80;99.90;;;;;;5008508;28;20026;-76
2020/12/11 07:36:28;;;;;;;19.20;7.38;;;0.80;99.90;;;;;;5010022;28;20022;-76
2020/12/11 07:38:54;;;;;;;20.42;7.70;;;0.80;99.90;;;;;;5013611;28;20029;-76
2020/12/11 07:41:22;;;;;;;19.80;7.65;;;0.80;99.90;;;;;;5012818;28;20415;-77
2020/12/11 07:43:48;;;;;;;16.83;7.15;;;0.80;99.90;;;;;;5012395;28;20030;-77
2020/12/11 07:46:23;;;;;;;18.80;7.55;;;0.80;99.90;;;;;;5010429;28;20037;-76
2020/12/11 07:48:52;;;;;;;15.15;6.80;;;0.80;99.90;;;;;;5013222;28;20539;-76
2020/12/11 07:51:21;;;;;;;16.35;6.47;;;0.70;99.90;;;;;;5012383;28;20040;-76
2020/12/11 07:53:53;;;;;;;15.73;6.63;;;0.80;99.90;;;;;;4992457;28;20057;-75
2020/12/11 07:56:24;;;;;;;13.55;6.70;;;0.80;99.90;;;;;;5008472;28;20520;-75
2020/12/11 07:58:50;;;;;;;17.63;6.93;;;0.70;99.90;;;;;;5006200;28;20030;-76
2020/12/11 08:01:16;;;;;;;15.20;7.40;;;0.70;99.90;;;;;;5000847;28;20034;-76
2020/12/11 08:03:41;;;;;;;15.35;5.88;;;0.70;99.90;;;;;;5010035;28;20034;-75
2020/12/11 08:06:11;;;;;;;17.48;7.50;;;0.70;99.90;;;;;;4995652;28;20062;-76
2020/12/11 08:08:37;;;;;;;15.27;4.95;;;0.70;99.90;;;;;;4992681;28;20117;-76
2020/12/11 08:11:02;;;;;;;14.15;5.55;;;0.60;99.90;;;;;;5008355;28;20026;-77
2020/12/11 08:13:28;;;;;;;13.43;6.03;;;0.70;99.90;;;;;;5004740;28;20042;-76
2020/12/11 08:16:01;;;;;;;14.20;6.50;;;0.70;99.90;;;;;;5006199;28;20026;-75
2020/12/11 08:18:29;;;;;;;17.50;7.10;;;0.70;99.90;;;;;;4985021;28;20480;-76
2020/12/11 08:21:00;;;;;;;16.15;7.07;;;0.70;99.90;;;;;;5011763;28;20038;-76
2020/12/11 08:23:36;;;;;;;14.88;6.32;;;0.70;99.90;;;;;;4994430;28;20065;-76
2020/12/11 08:26:06;;;;;;;17.33;7.43;;;0.70;99.90;;;;;;4995032;28;20088;-76
2020/12/11 08:28:33;;;;;;;12.30;6.32;;;0.70;99.90;;;;;;5012001;28;20369;-77
2020/12/11 08:31:24;;;;;;;16.23;7.82;;;0.80;99.90;;;;;;5009713;28;20479;-76
2020/12/11 08:34:01;;;;;;;16.35;5.80;;;0.70;99.90;;;;;;5004400;28;20484;-76
2020/12/11 08:36:28;;;;;;;15.55;6.80;;;0.70;99.90;;;;;;5002963;28;20034;-76
2020/12/11 08:39:23;;;;;;;13.70;6.35;;;0.70;99.90;;;;;;5010906;28;20496;-76
2020/12/11 08:49:50;;;;;;;18.08;6.78;;;0.60;99.90;;;;;;5005736;28;20041;-75
2020/12/11 08:52:16;;;;;;;19.17;7.28;;;0.60;99.90;;;;;;4995299;28;20045;-74
2020/12/11 08:54:42;;;;;;;16.05;6.63;;;0.70;99.90;;;;;;5003125;28;20038;-75
2020/12/11 08:57:08;;;;;;;15.98;6.72;;;0.60;99.90;;;;;;5007537;28;20106;-75
2020/12/11 08:59:33;;;;;;;18.90;7.88;;;0.70;99.90;;;;;;5012313;28;20503;-76
2020/12/11 09:02:04;;;;;;;23.48;7.70;;;0.70;99.90;;;;;;5011595;28;20391;-75
2020/12/11 09:04:30;;;;;;;14.13;6.47;;;0.70;99.90;;;;;;5003750;28;20038;-76
2020/12/11 09:06:56;;;;;;;15.10;7.05;;;0.70;99.90;;;;;;4993603;28;20403;-76
2020/12/11 09:09:22;;;;;;;18.35;7.03;;;0.80;99.90;;;;;;5011732;28;20038;-76
2020/12/11 09:11:49;;;;;;;15.68;7.15;;;0.70;99.90;;;;;;4999213;28;20091;-75
2020/12/11 09:14:15;;;;;;;14.85;6.35;;;0.70;99.90;;;;;;5000648;28;20488;-75
2020/12/11 09:16:41;;;;;;;10.35;4.22;;;0.80;99.90;;;;;;4993763;28;20029;-76
2020/12/11 09:19:07;;;;;;;23.42;7.63;;;0.70;99.90;;;;;;4995072;28;20034;-76
2020/12/11 09:21:32;;;;;;;17.35;7.20;;;0.70;99.90;;;;;;4975624;28;20649;-76
2020/12/11 09:23:58;;;;;;;16.35;7.35;;;0.80;99.90;;;;;;4987942;28;20677;-77
2020/12/11 09:26:26;;;;;;;20.83;7.20;;;0.80;99.90;;;;;;5007016;28;20034;-77
2020/12/11 09:29:01;;;;;;;23.42;8.57;;;0.80;99.90;;;;;;4964854;28;20085;-77
2020/12/11 09:31:27;;;;;;;21.73;7.43;;;0.90;99.90;;;;;;5009166;28;20145;-77
2020/12/11 09:33:56;;;;;;;16.13;7.22;;;0.90;99.90;;;;;;5010956;28;20116;-76
2020/12/11 09:36:21;;;;;;;14.60;6.40;;;0.90;99.90;;;;;;4999015;28;20035;-77
2020/12/11 09:38:47;;;;;;;19.83;8.13;;;0.90;99.90;;;;;;4992345;28;20037;-76
2020/12/11 09:41:16;;;;;;;22.20;8.05;;;0.90;99.90;;;;;;4993937;28;20053;-76
2020/12/11 09:46:36;;;;;;;18.65;7.55;;;0.90;99.90;;;;;;5011724;28;20034;-76
2020/12/11 09:49:15;;;;;;;22.38;8.05;;;0.90;99.90;;;;;;5012535;28;20037;-76
2020/12/11 09:52:04;;;;;;;19.70;7.65;;;1.00;99.90;;;;;;5008123;28;20104;-76
2020/12/11 09:54:34;;;;;;;15.75;7.35;;;0.90;99.90;;;;;;4973114;28;20037;-76
2020/12/11 09:57:01;;;;;;;17.73;7.18;;;0.90;99.90;;;;;;4994072;28;20040;-76
2020/12/11 09:59:32;;;;;;;15.13;6.95;;;0.80;99.90;;;;;;4994448;28;20042;-76
2020/12/11 10:04:26;;;;;;;21.63;8.05;;;0.80;99.90;;;;;;5003534;28;20030;-79
2020/12/11 10:06:52;;;;;;;19.73;7.32;;;0.90;99.90;;;;;;4982898;28;20089;-77
2020/12/11 10:09:17;;;;;;;17.42;7.28;;;0.80;99.90;;;;;;4988630;28;20501;-76
2020/12/11 10:11:43;;;;;;;20.67;7.32;;;0.80;99.90;;;;;;5008989;28;20084;-78
2020/12/11 10:16:54;;;;;;;18.33;6.97;;;0.70;99.90;;;;;;5011202;28;20117;-76
2020/12/11 10:19:23;;;;;;;19.30;6.93;;;0.70;99.90;;;;;;4991471;28;20110;-75
2020/12/11 10:21:53;;;;;;;18.73;7.10;;;0.70;99.90;;;;;;4991657;28;20026;-75
2020/12/11 10:24:19;;;;;;;23.30;8.35;;;0.70;99.90;;;;;;4991867;28;20042;-76
2020/12/11 10:26:45;;;;;;;17.55;6.05;;;0.70;99.90;;;;;;4991128;28;20105;-75
2020/12/11 10:29:11;;;;;;;20.10;8.25;;;0.80;99.90;;;;;;4991626;28;20018;-75
2020/12/11 10:31:41;;;;;;;21.77;8.07;;;0.90;99.90;;;;;;4991306;28;20172;-76
2020/12/11 10:34:11;;;;;;;20.63;7.50;;;0.90;99.90;;;;;;4990876;28;20039;-76
2020/12/11 10:36:38;;;;;;;21.20;7.55;;;0.90;99.90;;;;;;4973745;28;20039;-75
2020/12/11 10:39:05;;;;;;;17.77;7.03;;;0.80;99.90;;;;;;4991747;28;20033;-76
2020/12/11 10:41:31;;;;;;;20.10;8.25;;;0.80;99.90;;;;;;4991176;28;20034;-78
2020/12/11 10:43:56;;;;;;;16.80;7.43;;;0.90;99.90;;;;;;5004768;28;20061;-75
2020/12/11 10:46:22;;;;;;;17.95;7.40;;;0.80;99.90;;;;;;5013574;28;20037;-75
2020/12/11 10:48:48;;;;;;;24.88;9.75;;;0.80;99.90;;;;;;5014476;28;20037;-78
2020/12/11 10:51:15;;;;;;;19.63;8.57;;;0.90;99.90;;;;;;4997167;28;20045;-76
2020/12/11 10:53:42;;;;;;;16.55;6.40;;;0.90;99.90;;;;;;5014514;28;20049;-77
2020/12/11 10:56:09;;;;;;;17.65;8.30;;;0.80;99.90;;;;;;5014415;28;20460;-77
2020/12/11 10:58:35;;;;;;;13.82;6.05;;;0.80;99.90;;;;;;4996872;28;20034;-76
2020/12/11 11:01:05;;;;;;;19.27;8.18;;;0.70;99.90;;;;;;5013758;28;20041;-75
2020/12/11 11:03:31;;;;;;;21.65;7.78;;;0.80;99.90;;;;;;5014120;28;20555;-75
2020/12/11 11:06:03;;;;;;;20.25;8.15;;;0.80;99.90;;;;;;5014025;28;20496;-75
2020/12/11 11:08:43;;;;;;;17.67;6.72;;;0.80;99.90;;;;;;5013882;28;20080;-75
2020/12/11 11:11:09;;;;;;;16.98;6.38;;;0.80;99.90;;;;;;5000323;28;20132;-75
2020/12/11 11:16:34;;;;;;;18.05;7.78;;;0.80;99.90;;;;;;4994191;28;20041;-75
2020/12/11 11:19:12;;;;;;;22.05;8.27;;;0.90;99.90;;;;;;5013496;28;20041;-75
2020/12/11 11:22:26;;;;;;;20.13;8.80;;;0.90;99.90;;;;;;5013192;28;20037;-75
2020/12/11 11:24:42;;;;;;;20.92;8.82;;;1.00;99.90;;;;;;4996427;28;20176;-75
2020/12/11 11:27:23;;;;;;;23.17;8.48;;;1.00;99.90;;;;;;5013877;28;20037;-75
2020/12/11 11:29:48;;;;;;;18.80;8.80;;;1.10;99.90;;;;;;5013592;28;20042;-75
2020/12/11 11:32:14;;;;;;;21.67;8.55;;;1.10;99.90;;;;;;5012936;28;20037;-75
2020/12/11 11:34:40;;;;;;;18.67;8.80;;;1.10;99.90;;;;;;5013534;28;20117;-75
2020/12/11 11:37:06;;;;;;;23.75;8.90;;;1.10;99.90;;;;;;5013308;28;20033;-75
2020/12/11 11:39:31;;;;;;;20.60;8.38;;;1.20;99.90;;;;;;5013574;28;20034;-75
2020/12/11 11:41:57;;;;;;;19.38;8.23;;;1.20;99.90;;;;;;5024809;23;20042;-75
2020/12/11 11:46:50;;;;;;;22.02;9.43;;;1.20;99.90;;;;;;5013435;28;20025;-77
2020/12/11 11:49:25;;;;;;;23.02;9.07;;;1.20;99.90;;;;;;5013159;28;20392;-77
2020/12/11 11:52:19;;;;;;;18.50;8.02;;;1.20;99.90;;;;;;5012498;28;20072;-76
2020/12/11 11:54:36;;;;;;;24.20;9.40;;;1.20;99.90;;;;;;4993159;28;20042;-76
2020/12/11 11:57:02;;;;;;;20.65;8.05;;;1.30;99.90;;;;;;5012783;28;20109;-76
2020/12/11 11:59:28;;;;;;;24.95;8.98;;;1.30;99.90;;;;;;5013190;28;20034;-74
2020/12/11 12:01:54;;;;;;;21.58;9.05;;;1.30;99.90;;;;;;5012043;28;20030;-76
2020/12/11 12:04:21;;;;;;;21.67;8.55;;;1.30;99.90;;;;;;5013651;28;20030;-76
2020/12/11 12:06:47;;;;;;;19.63;7.95;;;1.30;99.90;;;;;;5012699;28;20025;-76
2020/12/11 12:09:13;;;;;;;20.98;9.10;;;1.30;99.90;;;;;;5012997;28;20034;-78
2020/12/11 12:11:38;;;;;;;22.48;9.35;;;1.30;99.90;;;;;;5012333;28;20022;-77
2020/12/11 12:14:04;;;;;;;20.55;9.30;;;1.30;99.90;;;;;;4992882;28;20534;-78
2020/12/11 12:16:31;;;;;;;19.25;7.95;;;1.30;99.90;;;;;;5013155;28;20049;-73
2020/12/11 12:18:59;;;;;;;20.77;8.10;;;1.40;99.90;;;;;;4994883;28;20140;-75
2020/12/11 12:29:30;;;;;;;19.80;8.13;;;1.40;99.90;;;;;;5012089;28;20034;-74
2020/12/11 12:31:59;;;;;;;17.58;8.73;;;1.40;99.90;;;;;;5010751;28;20128;-75
2020/12/11 12:37:03;;;;;;;21.00;8.35;;;1.40;99.90;;;;;;5012375;28;20120;-76
2020/12/11 12:44:44;;;;;;;22.08;9.15;;;1.50;99.90;;;;;;5011466;28;20037;-75
2020/12/11 12:47:10;;;;;;;21.73;9.05;;;1.50;99.90;;;;;;4994148;28;20030;-75
2020/12/11 12:49:36;;;;;;;19.52;8.70;;;1.50;99.90;;;;;;4992707;28;20037;-74
2020/12/11 12:52:02;;;;;;;23.77;8.90;;;1.50;99.90;;;;;;5009191;28;20050;-75
2020/12/11 12:54:28;;;;;;;21.25;8.77;;;1.50;99.90;;;;;;4997456;28;20674;-76
2020/12/11 12:56:59;;;;;;;22.63;8.40;;;1.50;99.90;;;;;;5011637;28;20052;-76
2020/12/11 13:02:47;;;;;;;21.38;8.88;;;1.60;99.90;;;;;;5011771;28;20137;-75
2020/12/11 13:05:12;;;;;;;19.60;8.45;;;1.60;99.90;;;;;;4995332;28;20059;-75
2020/12/11 13:07:38;;;;;;;18.75;8.68;;;1.60;99.90;;;;;;5011913;28;20479;-77
2020/12/11 13:10:05;;;;;;;22.65;9.73;;;1.60;99.90;;;;;;5010582;28;20128;-75
2020/12/11 13:12:31;;;;;;;22.33;10.07;;;1.60;99.90;;;;;;5011647;28;20033;-76
2020/12/11 13:14:56;;;;;;;21.20;8.32;;;1.60;99.90;;;;;;5012219;28;20038;-78
2020/12/11 13:17:22;;;;;;;20.92;8.73;;;1.60;99.90;;;;;;5011650;28;20404;-75
2020/12/11 13:19:48;;;;;;;20.35;8.48;;;1.60;99.90;;;;;;5006556;28;20033;-77
2020/12/11 13:27:30;;;;;;;23.52;8.93;;;1.50;99.90;;;;;;4994213;28;20041;-78
2020/12/11 13:29:57;;;;;;;19.75;9.15;;;1.50;99.90;;;;;;5010208;28;20113;-76
2020/12/11 13:32:23;;;;;;;20.27;9.30;;;1.50;99.90;;;;;;5007685;28;20026;-78
2020/12/11 13:34:49;;;;;;;18.17;8.48;;;1.50;99.90;;;;;;4997198;28;20478;-76
2020/12/11 13:37:15;;;;;;;20.38;9.07;;;1.50;99.90;;;;;;4990652;28;20365;-74
2020/12/11 13:39:41;;;;;;;22.27;9.15;;;1.60;99.90;;;;;;4974012;28;20037;-76